Gore, VA (22637)

7:09 AM EST on February 11, 2016 (GMT -0500)
Walnut Springs | | Change Station
CLOSE
Current Station
Personal Weather Station
Location: Gore, VA
Elevation: 906 ft
Nearby Weather Stations

Elev 906 ft 39.27 °N, 78.30 °W | Updated 2 seconds ago

Mostly Cloudy
Mostly Cloudy
15.6 °F
Feels Like 4 °F
N
9.0
Wind Variable Wind from WNW
Gusts 18.0 mph

Today
High -- | Low -- °F
--% Chance of Precip.
Yesterday
High -- | Low -- °F
Precip. -- in
Pressure 30.04 in
Visibility 10.0 miles
Clouds Scattered Clouds 4600 ft
Mostly Cloudy 6000 ft
Windchill 4 °F
Dew Point 7 °F
Humidity 67%
Rainfall 0.00 in
Snow Depth Not available.
7:10 AM 5:45 PM
Waxing Crescent, 11% visible
METAR KOKV 111155Z AUTO 27008KT 10SM SCT046 BKN060 M07/M15 A3004 RMK AO2
Pressure 30.04 in
Visibility 10.0 miles
Clouds Scattered Clouds 4600 ft
Mostly Cloudy 6000 ft
Windchill 4 °F
Dew Point 7 °F
Humidity 67%
Rainfall 0.00 in
Snow Depth Not available.
7:10 AM 5:45 PM
Waxing Crescent, 11% visible
METAR KOKV 111155Z AUTO 27008KT 10SM SCT046 BKN060 M07/M15 A3004 RMK AO2

10-Day Weather Forecast

Almanac

Astronomy

Feb. 11, 2016 Rise Set
Actual Time
Civil Twilight
Nautical Twilight
Astronomical Twilight
Moon
Length of Visible Light
Length of Day
Tomorrow will be .
, % of the Moon is Illuminated

Today's Extremes

State Highs State Lows

Community

WunderPhotos

Upload Photos

1,892,035 photos uploaded!

WunderBlog® & News

Nearby

Air Quality

  Air Quality AQ Index Pollutant
Not available.

Snow Depth

Station Depth Elevation

Earthquake Activity

City Distance Mag. Time & Date
Minimum magnitude displayed is 2.5.

Coastal Water Temperatures

Place Temperature

Stations

Nearby Weather Stations

Station Location Temp. Windchill Dew Point Humidity Wind Precip. Elev Updated Type
                   

Watches & Warnings

There are currently no watches in effect.